createdAt,value
2019-01-08T00:04:45.640Z,8.20
2019-01-08T00:07:33.548Z,8.10
2019-01-08T00:10:21.529Z,8.20
2019-01-08T00:13:21.223Z,8.20
2019-01-08T00:15:58.971Z,8.20
2019-01-08T00:18:46.871Z,8.20
2019-01-08T00:21:34.712Z,8.20
2019-01-08T00:27:29.468Z,8.30
2019-01-08T00:30:17.293Z,8.30
2019-01-08T00:36:12.072Z,8.40
2019-01-08T00:38:59.971Z,8.40
2019-01-08T00:41:47.873Z,8.40
2019-01-08T00:44:28.239Z,8.40
2019-01-08T00:47:09.322Z,8.30
2019-01-08T00:49:50.479Z,8.20
2019-01-08T00:52:31.234Z,8.20
2019-01-08T00:55:12.314Z,8.10
2019-01-08T00:57:51.157Z,8.10
2019-01-08T01:00:39.059Z,8.10
2019-01-08T01:03:26.959Z,8.10
2019-01-08T01:06:14.863Z,8.10
2019-01-08T01:09:02.833Z,8.10
2019-01-08T01:11:50.675Z,8.10
2019-01-08T01:14:38.576Z,8.10
2019-01-08T01:17:27.113Z,8.10
2019-01-08T01:20:15.001Z,8.00
2019-01-08T01:23:02.931Z,8.00
2019-01-08T01:25:50.838Z,8.10
2019-01-08T01:28:38.722Z,8.10
2019-01-08T01:31:26.537Z,8.00
2019-01-08T01:34:14.447Z,8.00
2019-01-08T01:37:02.322Z,7.90
2019-01-08T01:39:50.231Z,7.90
2019-01-08T01:42:38.236Z,7.90
2019-01-08T01:45:19.269Z,7.90
2019-01-08T01:48:00.129Z,8.00
2019-01-08T01:50:41.163Z,8.00
2019-01-08T01:53:22.157Z,8.00
2019-01-08T01:56:03.367Z,8.10
2019-01-08T01:58:43.873Z,8.10
2019-01-08T02:01:24.243Z,8.10
2019-01-08T02:04:05.204Z,8.10
2019-01-08T02:06:45.891Z,8.20
2019-01-08T02:09:26.321Z,8.20
2019-01-08T02:15:28.911Z,8.10
2019-01-08T02:21:54.065Z,8.20
2019-01-08T02:24:34.654Z,8.20
2019-01-08T02:27:15.099Z,8.10
2019-01-08T02:29:55.642Z,8.00
2019-01-08T02:32:36.069Z,7.90
2019-01-08T02:35:17.368Z,7.80
2019-01-08T02:44:28.277Z,7.60
2019-01-08T02:47:11.959Z,7.60
2019-01-08T02:49:52.822Z,7.50
2019-01-08T02:52:33.228Z,7.50
2019-01-08T02:55:13.651Z,7.60
2019-01-08T02:57:54.127Z,7.60
2019-01-08T03:00:35.145Z,7.60
2019-01-08T03:03:15.507Z,7.50
2019-01-08T03:05:56.459Z,7.50
2019-01-08T03:08:37.263Z,7.50
2019-01-08T03:11:18.433Z,7.50
2019-01-08T03:13:59.060Z,7.50
2019-01-08T03:16:39.421Z,7.50
2019-01-08T03:19:20.259Z,7.40
2019-01-08T03:22:00.649Z,7.40
2019-01-08T03:24:41.682Z,7.50
2019-01-08T03:27:22.868Z,7.40
2019-01-08T03:30:03.807Z,7.40
2019-01-08T03:32:44.403Z,7.40
2019-01-08T03:35:24.934Z,7.30
2019-01-08T03:38:05.997Z,7.30
2019-01-08T03:40:46.911Z,7.30
2019-01-08T03:43:27.381Z,7.20
2019-01-08T03:46:07.752Z,7.20
2019-01-08T03:48:48.601Z,7.20
2019-01-08T03:51:28.966Z,7.20
2019-01-08T03:54:09.892Z,7.20
2019-01-08T03:56:51.099Z,7.20
2019-01-08T03:59:32.070Z,7.20
2019-01-08T04:02:12.556Z,7.20
2019-01-08T04:04:53.186Z,7.20
2019-01-08T04:07:34.172Z,7.20
2019-01-08T04:10:14.948Z,7.30
2019-01-08T04:12:55.936Z,7.30
2019-01-08T04:15:36.618Z,7.20
2019-01-08T04:18:17.506Z,7.30
2019-01-08T04:20:58.618Z,7.30
2019-01-08T04:23:39.028Z,7.30
2019-01-08T04:26:17.851Z,7.30
2019-01-08T04:29:05.756Z,7.30
2019-01-08T04:31:53.576Z,7.30
2019-01-08T04:34:41.463Z,7.30
2019-01-08T04:37:29.274Z,7.30
2019-01-08T04:40:17.107Z,7.30
2019-01-08T04:43:04.996Z,7.30
2019-01-08T04:45:45.488Z,7.30
2019-01-08T04:48:24.334Z,7.30
2019-01-08T04:51:12.212Z,7.30
2019-01-08T04:54:00.028Z,7.30
2019-01-08T04:56:47.852Z,7.10
2019-01-08T04:59:35.776Z,7.20
2019-01-08T05:02:23.662Z,7.20
2019-01-08T05:05:11.576Z,7.20
2019-01-08T05:07:59.444Z,7.20
2019-01-08T05:10:47.258Z,7.20
2019-01-08T05:13:35.115Z,7.10
2019-01-08T05:16:23.004Z,7.20
2019-01-08T05:19:10.886Z,7.20
2019-01-08T05:21:58.719Z,7.20
2019-01-08T05:24:46.634Z,7.30
2019-01-08T05:27:34.527Z,7.20
2019-01-08T05:30:22.436Z,7.30
2019-01-08T05:33:10.304Z,7.30
2019-01-08T05:35:58.112Z,7.20
2019-01-08T05:38:45.930Z,7.20
2019-01-08T05:41:33.832Z,7.20
2019-01-08T05:44:21.704Z,7.20
2019-01-08T05:47:09.970Z,7.30
2019-01-08T05:49:50.665Z,7.30
2019-01-08T05:52:31.666Z,7.30
2019-01-08T05:55:12.544Z,7.30
2019-01-08T05:57:53.520Z,7.30
2019-01-08T06:00:33.904Z,7.30
2019-01-08T06:03:14.924Z,7.30
2019-01-08T06:05:55.336Z,7.30
2019-01-08T06:08:35.857Z,7.30
2019-01-08T06:11:14.756Z,7.30
2019-01-08T06:14:02.664Z,7.30
2019-01-08T06:16:50.552Z,7.30
2019-01-08T06:19:38.352Z,7.30
2019-01-08T06:22:26.184Z,7.40
2019-01-08T06:25:14.081Z,7.30
2019-01-08T06:28:01.997Z,7.40
2019-01-08T06:30:49.906Z,7.40
2019-01-08T06:33:37.800Z,7.40
2019-01-08T06:36:26.352Z,7.40
2019-01-08T06:39:15.158Z,7.40
2019-01-08T06:42:03.074Z,7.40
2019-01-08T06:44:50.974Z,7.40
2019-01-08T06:47:38.870Z,7.40
2019-01-08T06:50:26.746Z,7.40
2019-01-08T06:53:14.596Z,7.40
2019-01-08T06:56:02.474Z,7.40
2019-01-08T06:58:50.333Z,7.30
2019-01-08T07:01:38.200Z,7.30
2019-01-08T07:04:26.110Z,7.20
2019-01-08T07:07:14.326Z,7.30
2019-01-08T07:10:02.234Z,7.30
2019-01-08T07:12:50.139Z,7.30
2019-01-08T07:15:38.058Z,7.20
2019-01-08T07:18:25.932Z,7.40
2019-01-08T07:21:13.741Z,7.30
2019-01-08T07:24:01.666Z,7.40
2019-01-08T07:26:49.550Z,7.40
2019-01-08T07:29:37.444Z,7.40
2019-01-08T07:32:25.340Z,7.40
2019-01-08T07:35:13.244Z,7.40
2019-01-08T07:38:01.038Z,7.40
2019-01-08T07:40:48.912Z,7.30
2019-01-08T07:43:36.785Z,7.40
2019-01-08T07:46:24.626Z,7.40
2019-01-08T07:49:12.553Z,7.40
2019-01-08T07:52:00.435Z,7.40
2019-01-08T07:54:48.272Z,7.40
2019-01-08T07:57:36.142Z,7.50
2019-01-08T08:03:17.050Z,7.50
2019-01-08T08:06:04.953Z,7.50
2019-01-08T08:08:53.211Z,7.50
2019-01-08T08:11:42.693Z,7.50
2019-01-08T08:14:30.590Z,7.50
2019-01-08T08:17:18.486Z,7.60
2019-01-08T08:20:27.057Z,7.50
2019-01-08T08:23:14.934Z,7.60
2019-01-08T08:26:02.748Z,7.50
2019-01-08T08:28:50.582Z,7.60
2019-01-08T08:31:38.540Z,7.60
2019-01-08T08:34:28.032Z,7.70
2019-01-08T08:37:15.980Z,7.70
2019-01-08T08:40:10.527Z,7.70
2019-01-08T08:45:52.202Z,7.70
2019-01-08T08:48:40.032Z,7.70
2019-01-08T08:51:20.628Z,7.80
2019-01-08T08:54:01.532Z,7.80
2019-01-08T08:56:40.378Z,7.80
2019-01-08T08:59:28.214Z,7.80
2019-01-08T09:02:16.116Z,7.80
2019-01-08T09:05:04.316Z,7.80
2019-01-08T09:07:32.870Z,7.70
2019-01-08T09:10:20.689Z,7.70
2019-01-08T09:13:08.620Z,7.70
2019-01-08T09:15:56.519Z,7.80
2019-01-08T09:21:42.725Z,7.80
2019-01-08T09:24:30.562Z,7.90
2019-01-08T09:27:18.436Z,7.90
2019-01-08T09:30:26.996Z,7.90
2019-01-08T09:33:14.842Z,7.90
2019-01-08T09:36:02.730Z,7.90
2019-01-08T09:38:51.296Z,7.90
2019-01-08T09:41:39.189Z,8.10
2019-01-08T09:44:27.077Z,8.10
2019-01-08T09:47:14.897Z,8.00
2019-01-08T09:50:02.809Z,7.90
2019-01-08T09:52:50.714Z,7.90
2019-01-08T09:55:38.630Z,8.00
2019-01-08T09:58:26.527Z,7.90
2019-01-08T10:01:14.364Z,7.90
2019-01-08T10:04:16.471Z,8.00
2019-01-08T10:06:52.612Z,8.10
2019-01-08T10:09:40.494Z,8.20
2019-01-08T10:12:28.295Z,8.20
2019-01-08T10:15:16.136Z,8.20
2019-01-08T10:18:04.026Z,8.10
2019-01-08T10:20:51.841Z,8.20
2019-01-08T10:23:39.655Z,8.20
2019-01-08T10:26:27.502Z,8.30
2019-01-08T10:32:22.266Z,8.30
2019-01-08T10:35:10.192Z,8.20
2019-01-08T10:37:58.095Z,8.10
2019-01-08T10:40:45.951Z,8.10
2019-01-08T10:43:33.856Z,8.10
2019-01-08T10:46:21.740Z,8.10
2019-01-08T10:49:09.614Z,8.20
2019-01-08T10:51:50.170Z,8.40
2019-01-08T10:54:30.506Z,8.70
2019-01-08T10:57:11.678Z,8.80
2019-01-08T10:59:52.037Z,8.90
2019-01-08T11:02:33.115Z,8.90
2019-01-08T11:05:14.404Z,8.80
2019-01-08T11:07:54.788Z,8.90
2019-01-08T11:10:35.769Z,8.70
2019-01-08T11:13:16.250Z,8.70
2019-01-08T11:15:56.788Z,8.70
2019-01-08T11:18:37.074Z,8.70
2019-01-08T11:21:18.115Z,8.70
2019-01-08T11:23:59.114Z,8.70
2019-01-08T11:26:40.247Z,8.70
2019-01-08T11:29:21.185Z,8.60
2019-01-08T11:32:02.454Z,8.60
2019-01-08T11:34:43.415Z,8.60
2019-01-08T11:37:24.026Z,8.60
2019-01-08T11:40:04.966Z,8.70
2019-01-08T11:42:46.005Z,8.60
2019-01-08T11:45:26.799Z,8.50
2019-01-08T11:48:05.746Z,8.60
2019-01-08T11:50:53.605Z,8.40
2019-01-08T11:53:41.543Z,8.40
2019-01-08T11:56:29.411Z,8.40
2019-01-08T12:02:10.534Z,8.40
2019-01-08T12:04:58.429Z,8.40
2019-01-08T12:07:46.341Z,8.30
2019-01-08T12:10:34.228Z,8.10
2019-01-08T12:13:22.118Z,7.70
2019-01-08T12:16:09.949Z,7.50
2019-01-08T12:18:57.872Z,7.20
2019-01-08T12:21:45.737Z,7.20
2019-01-08T12:24:33.663Z,7.20
2019-01-08T12:27:21.567Z,7.30
2019-01-08T12:30:10.158Z,7.40
2019-01-08T12:32:57.983Z,7.60
2019-01-08T12:35:45.913Z,7.70
2019-01-08T12:38:33.813Z,7.80
2019-01-08T12:41:21.731Z,7.90
2019-01-08T12:44:09.601Z,8.00
2019-01-08T12:46:50.653Z,8.00
2019-01-08T12:49:30.974Z,8.10
2019-01-08T12:52:12.088Z,8.10
2019-01-08T12:54:52.626Z,8.10
2019-01-08T12:57:33.839Z,8.10
2019-01-08T13:00:14.477Z,8.20
2019-01-08T13:02:55.509Z,8.10
2019-01-08T13:05:36.111Z,8.10
2019-01-08T13:08:14.914Z,8.10
2019-01-08T13:11:02.759Z,8.10
2019-01-08T13:13:50.638Z,8.20
2019-01-08T13:16:38.442Z,8.30
2019-01-08T13:19:26.270Z,8.10
2019-01-08T13:22:14.159Z,8.10
2019-01-08T13:25:02.131Z,8.00
2019-01-08T13:27:49.986Z,8.00
2019-01-08T13:30:37.853Z,7.90
2019-01-08T13:33:25.659Z,7.90
2019-01-08T13:36:32.799Z,7.90
2019-01-08T13:39:20.697Z,7.90
2019-01-08T13:42:08.581Z,7.90
2019-01-08T13:47:47.279Z,8.00
2019-01-08T13:50:28.030Z,8.00
2019-01-08T13:53:08.393Z,8.00
2019-01-08T13:55:49.192Z,7.70
2019-01-08T13:58:30.011Z,7.40
2019-01-08T14:01:10.759Z,7.40
2019-01-08T14:03:51.783Z,7.30
2019-01-08T14:06:32.231Z,7.30
2019-01-08T14:09:12.953Z,7.30
2019-01-08T14:11:55.813Z,7.20
2019-01-08T14:14:36.421Z,7.20
2019-01-08T14:17:17.187Z,7.20
2019-01-08T14:19:55.948Z,7.20
2019-01-08T14:22:43.847Z,7.10
2019-01-08T14:25:31.737Z,7.10
2019-01-08T14:28:19.678Z,7.00
2019-01-08T14:34:14.430Z,6.90
2019-01-08T14:37:02.276Z,6.90
2019-01-08T14:39:50.162Z,7.00
2019-01-08T14:42:37.979Z,7.00
2019-01-08T14:45:25.912Z,7.00
2019-01-08T14:48:06.317Z,6.90
2019-01-08T14:50:46.922Z,6.90
2019-01-08T14:53:27.942Z,6.80
2019-01-08T14:56:08.414Z,6.70
2019-01-08T14:58:49.375Z,6.70
2019-01-08T15:01:29.832Z,6.60
2019-01-08T15:04:10.813Z,6.60
2019-01-08T15:06:51.216Z,6.50
2019-01-08T15:09:32.020Z,6.60
2019-01-08T15:12:12.868Z,6.50
2019-01-08T15:14:53.326Z,6.60
2019-01-08T15:17:34.479Z,6.60
2019-01-08T15:20:15.108Z,6.60
2019-01-08T15:22:55.874Z,6.60
2019-01-08T15:25:36.362Z,6.60
2019-01-08T15:28:17.509Z,6.60
2019-01-08T15:30:58.104Z,6.50
2019-01-08T15:33:38.830Z,6.50
2019-01-08T15:36:19.175Z,6.40
2019-01-08T15:38:59.970Z,6.40
2019-01-08T15:41:40.997Z,6.50
2019-01-08T15:44:21.790Z,6.40
2019-01-08T15:47:02.817Z,6.40
2019-01-08T15:49:43.118Z,6.30
2019-01-08T15:52:23.754Z,6.30
2019-01-08T15:55:04.243Z,6.30
2019-01-08T15:57:43.157Z,6.30
2019-01-08T16:00:31.142Z,6.30
2019-01-08T16:03:19.014Z,6.40
2019-01-08T16:06:06.847Z,6.30
2019-01-08T16:08:54.756Z,6.20
2019-01-08T16:11:42.642Z,6.30
2019-01-08T16:14:30.539Z,6.30
2019-01-08T16:17:18.363Z,6.20
2019-01-08T16:20:06.546Z,6.20
2019-01-08T16:22:54.447Z,6.10
2019-01-08T16:25:42.344Z,6.20
2019-01-08T16:28:30.144Z,6.20
2019-01-08T16:31:17.994Z,6.00
2019-01-08T16:34:05.879Z,6.10
2019-01-08T16:36:53.817Z,6.00
2019-01-08T16:39:41.713Z,6.00
2019-01-08T16:42:29.624Z,6.00
2019-01-08T16:45:17.518Z,5.90
2019-01-08T16:47:58.278Z,6.00
2019-01-08T16:50:39.247Z,5.90
2019-01-08T16:53:22.274Z,5.80
2019-01-08T16:56:02.876Z,5.90
2019-01-08T16:58:46.710Z,5.90
2019-01-08T17:01:27.495Z,5.90
2019-01-08T17:04:08.765Z,5.90
2019-01-08T17:06:49.178Z,5.90
2019-01-08T17:09:30.184Z,5.80
2019-01-08T17:12:11.348Z,5.80
2019-01-08T17:14:51.887Z,5.70
2019-01-08T17:17:32.864Z,5.60
2019-01-08T17:20:13.806Z,5.60
2019-01-08T17:22:55.477Z,5.60
2019-01-08T17:25:36.705Z,5.50
2019-01-08T17:28:15.516Z,5.50
2019-01-08T17:31:03.437Z,5.40
2019-01-08T17:33:51.333Z,5.30
2019-01-08T17:36:39.248Z,5.30
2019-01-08T17:39:46.334Z,5.20
2019-01-08T17:42:34.183Z,5.10
2019-01-08T17:45:36.255Z,5.10
2019-01-08T17:51:18.496Z,5.20
2019-01-08T17:54:06.408Z,5.20
2019-01-08T17:56:54.312Z,5.30
2019-01-08T17:59:42.173Z,5.40
2019-01-08T18:02:30.077Z,5.40
2019-01-08T18:05:17.974Z,5.40
2019-01-08T18:08:05.901Z,5.50
2019-01-08T18:10:47.107Z,5.50
2019-01-08T18:13:27.578Z,5.50
2019-01-08T18:16:08.391Z,5.60
2019-01-08T18:18:48.880Z,5.60
2019-01-08T18:21:29.700Z,5.60
2019-01-08T18:24:10.403Z,5.60
2019-01-08T18:26:50.759Z,5.40
2019-01-08T18:29:31.803Z,5.30
2019-01-08T18:32:12.889Z,5.30
2019-01-08T18:34:53.228Z,5.40
2019-01-08T18:37:34.547Z,5.50
2019-01-08T18:40:16.656Z,5.40
2019-01-08T18:42:58.317Z,5.30
2019-01-08T18:45:39.352Z,5.10
2019-01-08T18:48:20.195Z,5.10
2019-01-08T18:51:02.381Z,5.00
2019-01-08T18:53:42.987Z,5.00
2019-01-08T18:56:23.707Z,5.00
2019-01-08T18:59:04.856Z,4.90
2019-01-08T19:01:45.742Z,4.90
2019-01-08T19:04:25.574Z,5.00
2019-01-08T19:07:13.390Z,5.00
2019-01-08T19:10:24.419Z,5.10
2019-01-08T19:13:12.312Z,5.10
2019-01-08T19:16:00.234Z,5.20
2019-01-08T19:18:49.762Z,5.20
2019-01-08T19:21:39.308Z,5.20
2019-01-08T19:24:27.193Z,5.20
2019-01-08T19:27:27.862Z,5.20
2019-01-08T19:30:28.492Z,5.20
2019-01-08T19:33:16.431Z,5.20
2019-01-08T19:36:04.357Z,5.10
2019-01-08T19:38:53.891Z,5.10
2019-01-08T19:41:35.657Z,5.10
2019-01-08T19:44:16.774Z,5.10
2019-01-08T19:46:58.716Z,5.10
2019-01-08T19:49:40.446Z,5.10
2019-01-08T19:52:22.929Z,5.00
2019-01-08T19:55:01.763Z,5.10
2019-01-08T19:57:49.766Z,5.10
2019-01-08T20:00:37.639Z,5.10
2019-01-08T20:03:25.583Z,5.10
2019-01-08T20:05:54.156Z,5.00
2019-01-08T20:08:48.656Z,5.00
2019-01-08T20:11:46.361Z,5.00
2019-01-08T20:14:22.325Z,5.00
2019-01-08T20:17:10.234Z,5.00
2019-01-08T20:19:58.467Z,4.80
2019-01-08T20:25:54.686Z,4.70
2019-01-08T20:28:32.467Z,4.70
2019-01-08T20:31:20.363Z,4.60
2019-01-08T20:34:08.282Z,4.70
2019-01-08T20:36:57.944Z,4.60
2019-01-08T20:39:45.733Z,4.70
2019-01-08T20:42:26.831Z,4.60
2019-01-08T20:45:07.861Z,4.60
2019-01-08T20:47:49.040Z,4.60
2019-01-08T20:50:30.032Z,4.60
2019-01-08T20:53:08.867Z,4.60
2019-01-08T20:59:26.014Z,4.60
2019-01-08T21:02:13.939Z,4.60
2019-01-08T21:05:16.510Z,4.60
2019-01-08T21:07:52.541Z,4.70
2019-01-08T21:10:40.453Z,4.60
2019-01-08T21:13:28.390Z,4.70
2019-01-08T21:16:19.094Z,4.60
2019-01-08T21:19:07.074Z,4.70
2019-01-08T21:21:54.980Z,4.70
2019-01-08T21:24:42.891Z,4.80
2019-01-08T21:27:30.810Z,4.80
2019-01-08T21:30:38.052Z,4.80
2019-01-08T21:33:25.967Z,4.70
2019-01-08T21:39:41.465Z,4.80
2019-01-08T21:42:29.380Z,4.80
2019-01-08T21:45:17.395Z,4.80
2019-01-08T21:48:05.320Z,4.80
2019-01-08T21:50:53.209Z,4.80
2019-01-08T21:53:41.214Z,4.80
2019-01-08T21:56:29.106Z,4.80
2019-01-08T21:59:17.049Z,4.80
2019-01-08T22:02:04.968Z,4.90
2019-01-08T22:04:53.493Z,4.90
2019-01-08T22:07:42.518Z,4.80
2019-01-08T22:10:30.399Z,4.90
2019-01-08T22:13:18.311Z,4.90
2019-01-08T22:16:06.203Z,4.90
2019-01-08T22:18:54.123Z,4.90
2019-01-08T22:21:42.041Z,4.90
2019-01-08T22:24:29.959Z,4.90
2019-01-08T22:27:17.871Z,4.90
2019-01-08T22:30:26.524Z,5.00
2019-01-08T22:33:14.438Z,5.00
2019-01-08T22:36:02.342Z,5.00
2019-01-08T22:38:50.595Z,5.00
2019-01-08T22:41:39.793Z,5.00
2019-01-08T22:44:20.645Z,4.90
2019-01-08T22:47:01.449Z,5.00
2019-01-08T22:49:42.122Z,4.90
2019-01-08T22:52:22.842Z,5.00
2019-01-08T22:55:03.518Z,5.00
2019-01-08T22:57:44.704Z,5.00
2019-01-08T23:00:44.980Z,5.00
2019-01-08T23:03:25.871Z,5.00
2019-01-08T23:06:06.681Z,5.00
2019-01-08T23:08:47.326Z,5.00
2019-01-08T23:11:28.208Z,4.90
2019-01-08T23:14:08.660Z,4.90
2019-01-08T23:16:49.924Z,4.90
2019-01-08T23:19:30.669Z,4.90
2019-01-08T23:22:11.772Z,4.80
2019-01-08T23:24:53.652Z,4.90
2019-01-08T23:27:34.812Z,4.80
2019-01-08T23:30:15.937Z,4.80
2019-01-08T23:32:56.420Z,4.80
2019-01-08T23:35:37.079Z,4.80
2019-01-08T23:38:17.885Z,4.80
2019-01-08T23:40:58.752Z,4.80
2019-01-08T23:43:39.260Z,4.80
2019-01-08T23:46:19.534Z,4.70
2019-01-08T23:49:00.562Z,4.80
2019-01-08T23:51:41.308Z,4.70
2019-01-08T23:54:22.257Z,4.70
2019-01-08T23:57:02.993Z,4.70
2019-01-08T23:59:44.008Z,4.70
